Currituck — AEFR — position and weather

sailwx.info

Track history (hours):
 
Tides and Currents Weather Stations Pressure Air Temp Water Temp Dewpoint Dewpoint Depression Visibility Wind Speed Wind Dir Waves Ship Positions

Currituck

Last reported at 2014-Jul-28 06:34 UTC. Time now 2014-Aug-01 11:59 UTC.
Position N 39°32' W 074°12'.

Length 45 m; draft 3 m.

Type: Dredging. MMSI: 369970446.

Date/timePositionNaut miles runAvg speedWind from/ knotsBaromVisibWave heightAir tempDewpointWater temp
2014-Jul-28 06:34N 39°32' W 074°12'7 7.3
2014-Jul-28 05:34N 39°39' W 074°08'7 6.5
2014-Jul-28 04:33N 39°45' W 074°05'1 1.0
2014-Jul-28 03:33N 39°46' W 074°06'1 1.0
2014-Jul-28 02:33N 39°45' W 074°05'1 1.1
2014-Jul-28 01:33N 39°46' W 074°06'0 0.5
2014-Jul-28 00:33N 39°46' W 074°06'3 2.7
2014-Jul-27 23:33N 39°48' W 074°09'3 2.7
2014-Jul-27 22:33N 39°46' W 074°07'1 0.6
2014-Jul-27 21:33N 39°45' W 074°07'1 1.1
2014-Jul-27 20:33N 39°46' W 074°06'0 0.2
2014-Jul-27 19:33N 39°46' W 074°06'0 0.0
2014-Jul-27 18:33N 39°46' W 074°06'1 1.2
2014-Jul-27 17:33N 39°45' W 074°05'4 3.8
2014-Jul-27 16:33N 39°48' W 074°08'1 0.7
2014-Jul-27 15:33N 39°48' W 074°09'4 4.0
2014-Jul-27 14:33N 39°44' W 074°06'1 1.4
2014-Jul-27 13:33N 39°46' W 074°06'1 0.7
2014-Jul-27 12:33N 39°46' W 074°07'3 2.7
2014-Jul-27 11:33N 39°47' W 074°09'2 2.1
2014-Jul-27 10:33N 39°47' W 074°07'1 1.5
2014-Jul-27 09:33N 39°45' W 074°07'1 1.1
2014-Jul-27 08:34N 39°45' W 074°05'0 0.2
2014-Jul-27 07:33N 39°45' W 074°05'1 1.0
2014-Jul-27 06:34N 39°46' W 074°06'0 0.3
2014-Jul-27 05:33N 39°46' W 074°06'1 0.9
2014-Jul-27 04:33N 39°45' W 074°05'1 0.7
2014-Jul-27 03:33N 39°45' W 074°06'1 1.0
2014-Jul-27 02:33N 39°46' W 074°06'0 0.4
2014-Jul-27 01:33N 39°46' W 074°06'0 0.4
2014-Jul-27 00:33N 39°46' W 074°06'3 2.9
2014-Jul-26 23:33N 39°47' W 074°09'2 2.2
2014-Jul-26 22:33N 39°46' W 074°07'1 0.6
2014-Jul-26 21:33N 39°46' W 074°06'1 1.5
2014-Jul-26 20:33N 39°45' W 074°05'1 0.8
2014-Jul-26 19:33N 39°45' W 074°06'1 0.9
2014-Jul-26 18:32N 39°45' W 074°05'2 2.0
2014-Jul-26 17:33N 39°46' W 074°07'2 2.3
2014-Jul-26 16:34N 39°48' W 074°09'3 2.8
2014-Jul-26 15:34N 39°46' W 074°06'0 0.4
2014-Jul-26 14:34N 39°46' W 074°07'2 2.4
2014-Jul-26 13:33N 39°48' W 074°09'2 1.9
2014-Jul-26 12:34N 39°47' W 074°07'2 1.9
2014-Jul-26 11:34N 39°45' W 074°07'0 0.0
2014-Jul-26 10:33N 39°45' W 074°07'1 0.9
2014-Jul-26 09:33N 39°46' W 074°06'1 1.2
2014-Jul-26 08:34N 39°45' W 074°06'1 0.9
2014-Jul-26 07:33N 39°46' W 074°05'0 0.4
2014-Jul-26 06:33N 39°46' W 074°06'0 0.0
2014-Jul-26 05:33N 39°46' W 074°06'1 1.0
2014-Jul-26 04:34N 39°45' W 074°05'1 0.8
2014-Jul-26 03:33N 39°45' W 074°06'1 0.5
2014-Jul-26 02:34N 39°45' W 074°05'0 0.3
2014-Jul-26 01:33N 39°45' W 074°05'3 2.8
2014-Jul-26 00:34N 39°47' W 074°07'1 1.5
2014-Jul-25 23:33N 39°48' W 074°09'3 3.1
2014-Jul-25 22:34N 39°45' W 074°07'1 1.1
2014-Jul-25 21:33N 39°46' W 074°06'1 0.9
2014-Jul-25 20:34N 39°45' W 074°06'1 1.0
2014-Jul-25 19:33N 39°46' W 074°06'0 0.0
2014-Jul-25 18:33N 39°46' W 074°06'1 0.5
2014-Jul-25 17:33N 39°45' W 074°05'1 0.7
2014-Jul-25 16:33N 39°45' W 074°06'1 0.1
2014-Jul-25 06:33N 39°46' W 074°06'0 0.2
2014-Jul-25 05:33N 39°45' W 074°05'1 1.1
2014-Jul-25 04:33N 39°45' W 074°06'1 0.7
2014-Jul-25 03:33N 39°45' W 074°06'0 0.2
2014-Jul-25 02:33N 39°45' W 074°05'1 1.0
2014-Jul-25 01:33N 39°46' W 074°06'2 2.0
2014-Jul-25 00:33N 39°47' W 074°07'2 1.5
2014-Jul-24 23:33N 39°48' W 074°09'3 2.7
2014-Jul-24 22:33N 39°46' W 074°07'0 0.2
2014-Jul-24 21:33N 39°45' W 074°07'1 1.0
2014-Jul-24 20:33N 39°46' W 074°06'0 0.2
2014-Jul-24 19:33N 39°46' W 074°06'1 0.0
2014-Jul-23 06:33N 39°45' W 074°06'1 0.7
2014-Jul-23 05:33N 39°45' W 074°05'1 0.8
2014-Jul-23 04:33N 39°46' W 074°06'0 0.0
2014-Jul-23 03:33N 39°46' W 074°06'1 1.2
2014-Jul-23 02:33N 39°45' W 074°05'4 4.3
2014-Jul-23 01:33N 39°48' W 074°09'0 0.3
2014-Jul-23 00:34N 39°48' W 074°09'4 3.6
2014-Jul-22 23:33N 39°45' W 074°05'1 1.3
2014-Jul-22 22:33N 39°45' W 074°07'0 0.1
2014-Jul-22 21:33N 39°45' W 074°07'0 0.0
2014-Jul-22 20:33N 39°45' W 074°07'1 1.1
2014-Jul-22 19:33N 39°45' W 074°05'0 0.4
2014-Jul-22 18:33N 39°45' W 074°05'1 1.0
2014-Jul-22 17:33N 39°46' W 074°06'0 0.1
2014-Jul-22 16:33N 39°46' W 074°06'0 0.5
2014-Jul-22 15:33N 39°45' W 074°05'4 3.8
2014-Jul-22 14:33N 39°48' W 074°09'0 0.1
2014-Jul-22 13:33N 39°48' W 074°09'4 4.2
2014-Jul-22 12:33N 39°45' W 074°05'1 0.9
2014-Jul-22 11:33N 39°46' W 074°05'1 0.6
2014-Jul-22 10:33N 39°46' W 074°06'1 0.9
2014-Jul-22 09:33N 39°45' W 074°07'1 1.0
2014-Jul-22 08:33N 39°46' W 074°06'0 0.1
2014-Jul-22 07:33N 39°46' W 074°06'0 0.1
2014-Jul-22 06:33N 39°46' W 074°06'1 1.0
2014-Jul-22 05:33N 39°45' W 074°05'1 0.9
2014-Jul-22 04:33N 39°45' W 074°06'1 0.9
2014-Jul-22 03:33N 39°45' W 074°05'1 0.5
2014-Jul-22 02:33N 39°46' W 074°06'0 0.0
2014-Jul-22 01:33N 39°46' W 074°06'1 0.5
2014-Jul-21 22:33N 39°47' W 074°07'1 1.2
2014-Jul-21 21:33N 39°45' W 074°07'1 0.9
2014-Jul-21 20:33N 39°46' W 074°06'0 0.4
2014-Jul-21 20:18N 39°46' W 074°06'1 1.1
2014-Jul-21 19:33N 39°45' W 074°05'0 0.0
2014-Jul-21 18:33N 39°45' W 074°05'1 0.8
2014-Jul-21 17:33N 39°46' W 074°06'0 0.0
2014-Jul-21 16:33N 39°46' W 074°06'1 0.6
2014-Jul-21 15:33N 39°46' W 074°05'1 0.5
2014-Jul-21 14:33N 39°45' W 074°05'1 1.0
2014-Jul-21 13:33N 39°45' W 074°06'0 0.0
2014-Jul-21 01:19N 39°45' W 074°06'1 1.4
2014-Jul-21 00:33N 39°46' W 074°06'3 3.3
2014-Jul-20 23:33N 39°48' W 074°09'2 2.3
2014-Jul-20 22:33N 39°46' W 074°07'1 0.9
2014-Jul-20 21:33N 39°46' W 074°06'1 0.7
2014-Jul-20 20:33N 39°46' W 074°07'3 2.5
2014-Jul-20 19:33N 39°48' W 074°09'0 0.0
2014-Jul-20 18:33N 39°48' W 074°09'4 4.1
2014-Jul-20 17:33N 39°45' W 074°05'1 0.9
2014-Jul-20 16:33N 39°46' W 074°06'1 1.0
2014-Jul-20 15:33N 39°45' W 074°05'1 0.3
2014-Jul-20 13:07N 39°45' W 074°05'1 0.1
2014-Jul-20 07:29N 39°46' W 074°06'0 0.1
2014-Jul-20 06:34N 39°46' W 074°06'0 0.2
2014-Jul-20 05:33N 39°46' W 074°06'0 0.4
2014-Jul-20 04:33N 39°46' W 074°06'0 0.5
2014-Jul-20 03:33N 39°45' W 074°05'1 1.1
2014-Jul-20 02:33N 39°45' W 074°06'1 1.1
2014-Jul-20 01:34N 39°46' W 074°05'1 0.8
2014-Jul-20 00:33N 39°46' W 074°06'3 2.8
2014-Jul-19 23:33N 39°48' W 074°09'3 3.1
2014-Jul-19 22:33N 39°45' W 074°07'0 0.0
2014-Jul-19 21:34N 39°45' W 074°07'1 0.7
2014-Jul-19 20:34N 39°45' W 074°06'1 0.8
2014-Jul-19 19:33N 39°45' W 074°05'2 2.0
2014-Jul-19 18:33N 39°46' W 074°07'2 2.1
2014-Jul-19 17:33N 39°48' W 074°09'3 2.5
2014-Jul-19 16:33N 39°46' W 074°07'1 0.6
2014-Jul-19 15:33N 39°46' W 074°06'0 0.2
2014-Jul-19 14:33N 39°46' W 074°06'1 1.0
2014-Jul-19 13:33N 39°45' W 074°06'1 1.2
2014-Jul-19 12:33N 39°46' W 074°07'1 0.1
2014-Jul-19 01:10N 39°45' W 074°06'1 2.0
2014-Jul-19 00:33N 39°46' W 074°06'0 0.0
2014-Jul-18 23:33N 39°46' W 074°06'1 1.0
2014-Jul-18 22:33N 39°45' W 074°07'0 0.0
2014-Jul-18 21:33N 39°45' W 074°07'1 0.6
2014-Jul-18 20:33N 39°45' W 074°06'4 3.7
2014-Jul-18 19:33N 39°48' W 074°09'0 0.2
2014-Jul-18 18:33N 39°48' W 074°10'4 3.8
2014-Jul-18 17:33N 39°45' W 074°06'1 0.9
2014-Jul-18 16:33N 39°45' W 074°05'1 0.6
2014-Jul-18 15:33N 39°46' W 074°06'0 0.1
2014-Jul-18 14:33N 39°46' W 074°06'1 0.6
2014-Jul-18 12:33N 39°45' W 074°05'1 0.7
2014-Jul-18 11:32N 39°45' W 074°06'1 1.3
2014-Jul-18 10:33N 39°46' W 074°06'1 0.9
2014-Jul-18 09:33N 39°45' W 074°07'2 2.5
2014-Jul-18 08:33N 39°48' W 074°09'0 0.4
2014-Jul-18 07:33N 39°48' W 074°09'  
Track history (hours):
 
Tides and Currents Weather Stations Pressure Air Temp Water Temp Dewpoint Dewpoint Depression Visibility Wind Speed Wind Dir Waves Ship Positions

Currituck

Last reported at 2014-Jul-28 06:34 UTC. Time now 2014-Aug-01 11:59 UTC.
Position N 39°32' W 074°12'.

Length 45 m; draft 3 m.

Type: Dredging. MMSI: 369970446.

Date/timePositionNaut miles runAvg speedWind from/ knotsBaromVisibWave heightAir tempDewpointWater temp
2014-Jul-28 06:34N 39°32' W 074°12'7 7.3
2014-Jul-28 05:34N 39°39' W 074°08'7 6.5
2014-Jul-28 04:33N 39°45' W 074°05'1 1.0
2014-Jul-28 03:33N 39°46' W 074°06'1 1.0
2014-Jul-28 02:33N 39°45' W 074°05'1 1.1
2014-Jul-28 01:33N 39°46' W 074°06'0 0.5
2014-Jul-28 00:33N 39°46' W 074°06'3 2.7
2014-Jul-27 23:33N 39°48' W 074°09'3 2.7
2014-Jul-27 22:33N 39°46' W 074°07'1 0.6
2014-Jul-27 21:33N 39°45' W 074°07'1 1.1
2014-Jul-27 20:33N 39°46' W 074°06'0 0.2
2014-Jul-27 19:33N 39°46' W 074°06'0 0.0
2014-Jul-27 18:33N 39°46' W 074°06'1 1.2
2014-Jul-27 17:33N 39°45' W 074°05'4 3.8
2014-Jul-27 16:33N 39°48' W 074°08'1 0.7
2014-Jul-27 15:33N 39°48' W 074°09'4 4.0
2014-Jul-27 14:33N 39°44' W 074°06'1 1.4
2014-Jul-27 13:33N 39°46' W 074°06'1 0.7
2014-Jul-27 12:33N 39°46' W 074°07'3 2.7
2014-Jul-27 11:33N 39°47' W 074°09'2 2.1
2014-Jul-27 10:33N 39°47' W 074°07'1 1.5
2014-Jul-27 09:33N 39°45' W 074°07'1 1.1
2014-Jul-27 08:34N 39°45' W 074°05'0 0.2
2014-Jul-27 07:33N 39°45' W 074°05'1 1.0
2014-Jul-27 06:34N 39°46' W 074°06'0 0.3
2014-Jul-27 05:33N 39°46' W 074°06'1 0.9
2014-Jul-27 04:33N 39°45' W 074°05'1 0.7
2014-Jul-27 03:33N 39°45' W 074°06'1 1.0
2014-Jul-27 02:33N 39°46' W 074°06'0 0.4
2014-Jul-27 01:33N 39°46' W 074°06'0 0.4
2014-Jul-27 00:33N 39°46' W 074°06'3 2.9
2014-Jul-26 23:33N 39°47' W 074°09'2 2.2
2014-Jul-26 22:33N 39°46' W 074°07'1 0.6
2014-Jul-26 21:33N 39°46' W 074°06'1 1.5
2014-Jul-26 20:33N 39°45' W 074°05'1 0.8
2014-Jul-26 19:33N 39°45' W 074°06'1 0.9
2014-Jul-26 18:32N 39°45' W 074°05'2 2.0
2014-Jul-26 17:33N 39°46' W 074°07'2 2.3
2014-Jul-26 16:34N 39°48' W 074°09'3 2.8
2014-Jul-26 15:34N 39°46' W 074°06'0 0.4
2014-Jul-26 14:34N 39°46' W 074°07'2 2.4
2014-Jul-26 13:33N 39°48' W 074°09'2 1.9
2014-Jul-26 12:34N 39°47' W 074°07'2 1.9
2014-Jul-26 11:34N 39°45' W 074°07'0 0.0
2014-Jul-26 10:33N 39°45' W 074°07'1 0.9
2014-Jul-26 09:33N 39°46' W 074°06'1 1.2
2014-Jul-26 08:34N 39°45' W 074°06'1 0.9
2014-Jul-26 07:33N 39°46' W 074°05'0 0.4
2014-Jul-26 06:33N 39°46' W 074°06'0 0.0
2014-Jul-26 05:33N 39°46' W 074°06'1 1.0
2014-Jul-26 04:34N 39°45' W 074°05'1 0.8
2014-Jul-26 03:33N 39°45' W 074°06'1 0.5
2014-Jul-26 02:34N 39°45' W 074°05'0 0.3
2014-Jul-26 01:33N 39°45' W 074°05'3 2.8
2014-Jul-26 00:34N 39°47' W 074°07'1 1.5
2014-Jul-25 23:33N 39°48' W 074°09'3 3.1
2014-Jul-25 22:34N 39°45' W 074°07'1 1.1
2014-Jul-25 21:33N 39°46' W 074°06'1 0.9
2014-Jul-25 20:34N 39°45' W 074°06'1 1.0
2014-Jul-25 19:33N 39°46' W 074°06'0 0.0
2014-Jul-25 18:33N 39°46' W 074°06'1 0.5
2014-Jul-25 17:33N 39°45' W 074°05'1 0.7
2014-Jul-25 16:33N 39°45' W 074°06'1 0.1
2014-Jul-25 06:33N 39°46' W 074°06'0 0.2
2014-Jul-25 05:33N 39°45' W 074°05'1 1.1
2014-Jul-25 04:33N 39°45' W 074°06'1 0.7
2014-Jul-25 03:33N 39°45' W 074°06'0 0.2
2014-Jul-25 02:33N 39°45' W 074°05'1 1.0
2014-Jul-25 01:33N 39°46' W 074°06'2 2.0
2014-Jul-25 00:33N 39°47' W 074°07'2 1.5
2014-Jul-24 23:33N 39°48' W 074°09'3 2.7
2014-Jul-24 22:33N 39°46' W 074°07'0 0.2
2014-Jul-24 21:33N 39°45' W 074°07'1 1.0
2014-Jul-24 20:33N 39°46' W 074°06'0 0.2
2014-Jul-24 19:33N 39°46' W 074°06'1 0.0
2014-Jul-23 06:33N 39°45' W 074°06'1 0.7
2014-Jul-23 05:33N 39°45' W 074°05'1 0.8
2014-Jul-23 04:33N 39°46' W 074°06'0 0.0
2014-Jul-23 03:33N 39°46' W 074°06'1 1.2
2014-Jul-23 02:33N 39°45' W 074°05'4 4.3
2014-Jul-23 01:33N 39°48' W 074°09'0 0.3
2014-Jul-23 00:34N 39°48' W 074°09'4 3.6
2014-Jul-22 23:33N 39°45' W 074°05'1 1.3
2014-Jul-22 22:33N 39°45' W 074°07'0 0.1
2014-Jul-22 21:33N 39°45' W 074°07'0 0.0
2014-Jul-22 20:33N 39°45' W 074°07'1 1.1
2014-Jul-22 19:33N 39°45' W 074°05'0 0.4
2014-Jul-22 18:33N 39°45' W 074°05'1 1.0
2014-Jul-22 17:33N 39°46' W 074°06'0 0.1
2014-Jul-22 16:33N 39°46' W 074°06'0 0.5
2014-Jul-22 15:33N 39°45' W 074°05'4 3.8
2014-Jul-22 14:33N 39°48' W 074°09'0 0.1
2014-Jul-22 13:33N 39°48' W 074°09'4 4.2
2014-Jul-22 12:33N 39°45' W 074°05'1 0.9
2014-Jul-22 11:33N 39°46' W 074°05'1 0.6
2014-Jul-22 10:33N 39°46' W 074°06'1 0.9
2014-Jul-22 09:33N 39°45' W 074°07'1 1.0
2014-Jul-22 08:33N 39°46' W 074°06'0 0.1
2014-Jul-22 07:33N 39°46' W 074°06'0 0.1
2014-Jul-22 06:33N 39°46' W 074°06'1 1.0
2014-Jul-22 05:33N 39°45' W 074°05'1 0.9
2014-Jul-22 04:33N 39°45' W 074°06'1 0.9
2014-Jul-22 03:33N 39°45' W 074°05'1 0.5
2014-Jul-22 02:33N 39°46' W 074°06'0 0.0
2014-Jul-22 01:33N 39°46' W 074°06'1 0.5
2014-Jul-21 22:33N 39°47' W 074°07'1 1.2
2014-Jul-21 21:33N 39°45' W 074°07'1 0.9
2014-Jul-21 20:33N 39°46' W 074°06'0 0.4
2014-Jul-21 20:18N 39°46' W 074°06'1 1.1
2014-Jul-21 19:33N 39°45' W 074°05'0 0.0
2014-Jul-21 18:33N 39°45' W 074°05'1 0.8
2014-Jul-21 17:33N 39°46' W 074°06'0 0.0
2014-Jul-21 16:33N 39°46' W 074°06'1 0.6
2014-Jul-21 15:33N 39°46' W 074°05'1 0.5
2014-Jul-21 14:33N 39°45' W 074°05'1 1.0
2014-Jul-21 13:33N 39°45' W 074°06'0 0.0
2014-Jul-21 01:19N 39°45' W 074°06'1 1.4
2014-Jul-21 00:33N 39°46' W 074°06'3 3.3
2014-Jul-20 23:33N 39°48' W 074°09'2 2.3
2014-Jul-20 22:33N 39°46' W 074°07'1 0.9
2014-Jul-20 21:33N 39°46' W 074°06'1 0.7
2014-Jul-20 20:33N 39°46' W 074°07'3 2.5
2014-Jul-20 19:33N 39°48' W 074°09'0 0.0
2014-Jul-20 18:33N 39°48' W 074°09'4 4.1
2014-Jul-20 17:33N 39°45' W 074°05'1 0.9
2014-Jul-20 16:33N 39°46' W 074°06'1 1.0
2014-Jul-20 15:33N 39°45' W 074°05'1 0.3
2014-Jul-20 13:07N 39°45' W 074°05'1 0.1
2014-Jul-20 07:29N 39°46' W 074°06'0 0.1
2014-Jul-20 06:34N 39°46' W 074°06'0 0.2
2014-Jul-20 05:33N 39°46' W 074°06'0 0.4
2014-Jul-20 04:33N 39°46' W 074°06'0 0.5
2014-Jul-20 03:33N 39°45' W 074°05'1 1.1
2014-Jul-20 02:33N 39°45' W 074°06'1 1.1
2014-Jul-20 01:34N 39°46' W 074°05'1 0.8
2014-Jul-20 00:33N 39°46' W 074°06'3 2.8
2014-Jul-19 23:33N 39°48' W 074°09'3 3.1
2014-Jul-19 22:33N 39°45' W 074°07'0 0.0
2014-Jul-19 21:34N 39°45' W 074°07'1 0.7
2014-Jul-19 20:34N 39°45' W 074°06'1 0.8
2014-Jul-19 19:33N 39°45' W 074°05'2 2.0
2014-Jul-19 18:33N 39°46' W 074°07'2 2.1
2014-Jul-19 17:33N 39°48' W 074°09'3 2.5
2014-Jul-19 16:33N 39°46' W 074°07'1 0.6
2014-Jul-19 15:33N 39°46' W 074°06'0 0.2
2014-Jul-19 14:33N 39°46' W 074°06'1 1.0
2014-Jul-19 13:33N 39°45' W 074°06'1 1.2
2014-Jul-19 12:33N 39°46' W 074°07'1 0.1
2014-Jul-19 01:10N 39°45' W 074°06'1 2.0
2014-Jul-19 00:33N 39°46' W 074°06'0 0.0
2014-Jul-18 23:33N 39°46' W 074°06'1 1.0
2014-Jul-18 22:33N 39°45' W 074°07'0 0.0
2014-Jul-18 21:33N 39°45' W 074°07'1 0.6
2014-Jul-18 20:33N 39°45' W 074°06'4 3.7
2014-Jul-18 19:33N 39°48' W 074°09'0 0.2
2014-Jul-18 18:33N 39°48' W 074°10'4 3.8
2014-Jul-18 17:33N 39°45' W 074°06'1 0.9
2014-Jul-18 16:33N 39°45' W 074°05'1 0.6
2014-Jul-18 15:33N 39°46' W 074°06'0 0.1
2014-Jul-18 14:33N 39°46' W 074°06'1 0.6
2014-Jul-18 12:33N 39°45' W 074°05'1 0.7
2014-Jul-18 11:32N 39°45' W 074°06'1 1.3
2014-Jul-18 10:33N 39°46' W 074°06'1 0.9
2014-Jul-18 09:33N 39°45' W 074°07'2 2.5
2014-Jul-18 08:33N 39°48' W 074°09'0 0.4
2014-Jul-18 07:33N 39°48' W 074°09'  

Dump ship's entire track history